sensor_id;sensor_type;location;lat;lon;timestamp;pressure;altitude;pressure_sealevel;temperature
69435;BMP180;56625;54.322;18.582;2023-08-06T00:01:53;100202.20;;;16.90
69435;BMP180;56625;54.322;18.582;2023-08-06T00:04:22;100192.80;;;16.90
69435;BMP180;56625;54.322;18.582;2023-08-06T00:06:50;100181.60;;;16.98
69435;BMP180;56625;54.322;18.582;2023-08-06T00:09:18;100171.20;;;17.00
69435;BMP180;56625;54.322;18.582;2023-08-06T00:11:46;100189.20;;;17.00
69435;BMP180;56625;54.322;18.582;2023-08-06T00:14:17;100177.00;;;17.04
69435;BMP180;56625;54.322;18.582;2023-08-06T00:16:45;100180.80;;;17.10
69435;BMP180;56625;54.322;18.582;2023-08-06T00:19:13;100179.60;;;17.10
69435;BMP180;56625;54.322;18.582;2023-08-06T00:21:44;100178.40;;;17.10
69435;BMP180;56625;54.322;18.582;2023-08-06T00:24:14;100171.20;;;17.10
69435;BMP180;56625;54.322;18.582;2023-08-06T00:26:42;100171.40;;;17.10
69435;BMP180;56625;54.322;18.582;2023-08-06T00:29:10;100181.00;;;17.10
69435;BMP180;56625;54.322;18.582;2023-08-06T00:31:38;100180.20;;;17.10
69435;BMP180;56625;54.322;18.582;2023-08-06T00:34:06;100161.60;;;17.14
69435;BMP180;56625;54.322;18.582;2023-08-06T00:36:35;100168.80;;;17.16
69435;BMP180;56625;54.322;18.582;2023-08-06T00:39:03;100163.40;;;17.20
69435;BMP180;56625;54.322;18.582;2023-08-06T00:41:32;100161.40;;;17.20
69435;BMP180;56625;54.322;18.582;2023-08-06T00:44:01;100159.60;;;17.20
69435;BMP180;56625;54.322;18.582;2023-08-06T00:46:30;100155.20;;;17.20
69435;BMP180;56625;54.322;18.582;2023-08-06T00:48:59;100156.80;;;17.20
69435;BMP180;56625;54.322;18.582;2023-08-06T00:51:30;100156.00;;;17.20
69435;BMP180;56625;54.322;18.582;2023-08-06T00:53:58;100140.00;;;17.20
69435;BMP180;56625;54.322;18.582;2023-08-06T00:56:28;100128.80;;;17.20
69435;BMP180;56625;54.322;18.582;2023-08-06T00:58:56;100107.80;;;17.20
69435;BMP180;56625;54.322;18.582;2023-08-06T01:01:25;100104.60;;;17.20
69435;BMP180;56625;54.322;18.582;2023-08-06T01:03:54;100096.60;;;17.20
69435;BMP180;56625;54.322;18.582;2023-08-06T01:12:17;100101.80;;;17.20
69435;BMP180;56625;54.322;18.582;2023-08-06T01:17:40;100100.60;;;17.20
69435;BMP180;56625;54.322;18.582;2023-08-06T01:20:09;100081.60;;;17.16
69435;BMP180;56625;54.322;18.582;2023-08-06T01:22:37;100072.60;;;17.10
69435;BMP180;56625;54.322;18.582;2023-08-06T01:25:07;100078.20;;;17.10
69435;BMP180;56625;54.322;18.582;2023-08-06T01:27:48;100073.00;;;17.10
69435;BMP180;56625;54.322;18.582;2023-08-06T01:30:26;100055.20;;;17.10
69435;BMP180;56625;54.322;18.582;2023-08-06T01:33:00;100047.00;;;17.02
69435;BMP180;56625;54.322;18.582;2023-08-06T01:35:30;100038.80;;;17.02
69435;BMP180;56625;54.322;18.582;2023-08-06T01:38:00;100046.00;;;17.00
69435;BMP180;56625;54.322;18.582;2023-08-06T01:40:29;100052.40;;;17.02
69435;BMP180;56625;54.322;18.582;2023-08-06T01:42:57;100051.80;;;17.00
69435;BMP180;56625;54.322;18.582;2023-08-06T01:45:25;100038.80;;;17.00
69435;BMP180;56625;54.322;18.582;2023-08-06T01:47:53;100040.60;;;17.00
69435;BMP180;56625;54.322;18.582;2023-08-06T01:50:21;100033.20;;;17.00
69435;BMP180;56625;54.322;18.582;2023-08-06T01:52:49;100039.40;;;17.00
69435;BMP180;56625;54.322;18.582;2023-08-06T01:55:17;100033.40;;;16.94
69435;BMP180;56625;54.322;18.582;2023-08-06T01:57:46;100021.80;;;16.90
69435;BMP180;56625;54.322;18.582;2023-08-06T02:00:14;100011.60;;;16.90
69435;BMP180;56625;54.322;18.582;2023-08-06T02:02:42;100008.40;;;16.80
69435;BMP180;56625;54.322;18.582;2023-08-06T02:05:10;100011.80;;;16.80
69435;BMP180;56625;54.322;18.582;2023-08-06T02:07:38;100007.80;;;16.70
69435;BMP180;56625;54.322;18.582;2023-08-06T02:10:07;100011.00;;;16.70
69435;BMP180;56625;54.322;18.582;2023-08-06T02:12:35;100005.00;;;16.60
69435;BMP180;56625;54.322;18.582;2023-08-06T02:15:03;100005.80;;;16.60
69435;BMP180;56625;54.322;18.582;2023-08-06T02:17:32;99998.60;;;16.60
69435;BMP180;56625;54.322;18.582;2023-08-06T02:20:00;99986.60;;;16.60
69435;BMP180;56625;54.322;18.582;2023-08-06T02:22:28;99971.60;;;16.60
69435;BMP180;56625;54.322;18.582;2023-08-06T02:24:56;99961.80;;;16.52
69435;BMP180;56625;54.322;18.582;2023-08-06T02:27:27;99952.80;;;16.50
69435;BMP180;56625;54.322;18.582;2023-08-06T02:29:55;99944.20;;;16.50
69435;BMP180;56625;54.322;18.582;2023-08-06T02:32:23;99935.40;;;16.50
69435;BMP180;56625;54.322;18.582;2023-08-06T02:34:51;99935.40;;;16.50
69435;BMP180;56625;54.322;18.582;2023-08-06T02:37:19;99929.20;;;16.42
69435;BMP180;56625;54.322;18.582;2023-08-06T02:39:47;99930.00;;;16.40
69435;BMP180;56625;54.322;18.582;2023-08-06T02:42:15;99920.00;;;16.40
69435;BMP180;56625;54.322;18.582;2023-08-06T02:44:43;99910.60;;;16.30
69435;BMP180;56625;54.322;18.582;2023-08-06T02:47:11;99911.40;;;16.30
69435;BMP180;56625;54.322;18.582;2023-08-06T02:49:39;99905.40;;;16.30
69435;BMP180;56625;54.322;18.582;2023-08-06T02:52:07;99903.00;;;16.20
69435;BMP180;56625;54.322;18.582;2023-08-06T02:54:35;99895.60;;;16.20
69435;BMP180;56625;54.322;18.582;2023-08-06T02:57:03;99891.60;;;16.20
69435;BMP180;56625;54.322;18.582;2023-08-06T02:59:32;99892.00;;;16.20
69435;BMP180;56625;54.322;18.582;2023-08-06T03:02:00;99884.20;;;16.20
69435;BMP180;56625;54.322;18.582;2023-08-06T03:04:28;99885.60;;;16.20
69435;BMP180;56625;54.322;18.582;2023-08-06T03:06:56;99868.80;;;16.22
69435;BMP180;56625;54.322;18.582;2023-08-06T03:09:24;99854.00;;;16.30
69435;BMP180;56625;54.322;18.582;2023-08-06T03:11:53;99839.80;;;16.30
69435;BMP180;56625;54.322;18.582;2023-08-06T03:14:21;99810.20;;;16.30
69435;BMP180;56625;54.322;18.582;2023-08-06T03:17:17;99777.80;;;16.34
69435;BMP180;56625;54.322;18.582;2023-08-06T03:19:45;99728.40;;;16.40
69435;BMP180;56625;54.322;18.582;2023-08-06T03:22:12;99677.60;;;16.44
69435;BMP180;56625;54.322;18.582;2023-08-06T03:24:40;99620.20;;;16.50
69435;BMP180;56625;54.322;18.582;2023-08-06T03:27:08;99590.00;;;16.50
69435;BMP180;56625;54.322;18.582;2023-08-06T03:29:36;99609.00;;;16.60
69435;BMP180;56625;54.322;18.582;2023-08-06T03:32:05;99629.20;;;16.60
69435;BMP180;56625;54.322;18.582;2023-08-06T03:34:33;99643.00;;;16.70
69435;BMP180;56625;54.322;18.582;2023-08-06T03:37:01;99644.00;;;16.72
69435;BMP180;56625;54.322;18.582;2023-08-06T03:39:29;99649.40;;;16.80
69435;BMP180;56625;54.322;18.582;2023-08-06T03:42:00;99664.80;;;16.80
69435;BMP180;56625;54.322;18.582;2023-08-06T03:44:28;99686.40;;;16.90
69435;BMP180;56625;54.322;18.582;2023-08-06T03:46:56;99713.80;;;16.90
69435;BMP180;56625;54.322;18.582;2023-08-06T03:49:24;99737.80;;;17.00
69435;BMP180;56625;54.322;18.582;2023-08-06T03:51:51;99732.80;;;17.00
69435;BMP180;56625;54.322;18.582;2023-08-06T03:54:20;99722.80;;;17.00
69435;BMP180;56625;54.322;18.582;2023-08-06T03:56:48;99728.40;;;17.10
69435;BMP180;56625;54.322;18.582;2023-08-06T03:59:15;99721.80;;;17.10
69435;BMP180;56625;54.322;18.582;2023-08-06T04:01:43;99730.60;;;17.10
69435;BMP180;56625;54.322;18.582;2023-08-06T04:04:11;99708.20;;;17.20
69435;BMP180;56625;54.322;18.582;2023-08-06T04:06:39;99693.80;;;17.20
69435;BMP180;56625;54.322;18.582;2023-08-06T04:09:07;99684.80;;;17.20
69435;BMP180;56625;54.322;18.582;2023-08-06T04:11:35;99675.20;;;17.22
69435;BMP180;56625;54.322;18.582;2023-08-06T04:14:04;99677.00;;;17.30
69435;BMP180;56625;54.322;18.582;2023-08-06T04:16:31;99678.60;;;17.30
69435;BMP180;56625;54.322;18.582;2023-08-06T04:18:59;99663.00;;;17.30
69435;BMP180;56625;54.322;18.582;2023-08-06T04:21:27;99658.40;;;17.32
69435;BMP180;56625;54.322;18.582;2023-08-06T04:23:56;99656.00;;;17.40
69435;BMP180;56625;54.322;18.582;2023-08-06T04:26:24;99650.80;;;17.40
69435;BMP180;56625;54.322;18.582;2023-08-06T04:28:52;99640.20;;;17.40
69435;BMP180;56625;54.322;18.582;2023-08-06T04:31:21;99644.60;;;17.40
69435;BMP180;56625;54.322;18.582;2023-08-06T04:33:49;99645.00;;;17.40
69435;BMP180;56625;54.322;18.582;2023-08-06T04:36:17;99640.20;;;17.50
69435;BMP180;56625;54.322;18.582;2023-08-06T04:38:45;99635.20;;;17.50
69435;BMP180;56625;54.322;18.582;2023-08-06T04:41:15;99608.00;;;17.50
69435;BMP180;56625;54.322;18.582;2023-08-06T04:43:43;99577.20;;;17.50
69435;BMP180;56625;54.322;18.582;2023-08-06T04:46:11;99565.80;;;17.50
69435;BMP180;56625;54.322;18.582;2023-08-06T04:48:39;99586.60;;;17.56
69435;BMP180;56625;54.322;18.582;2023-08-06T04:51:07;99597.00;;;17.60
69435;BMP180;56625;54.322;18.582;2023-08-06T04:53:35;99599.60;;;17.60
69435;BMP180;56625;54.322;18.582;2023-08-06T04:56:03;99602.20;;;17.60
69435;BMP180;56625;54.322;18.582;2023-08-06T04:58:31;99602.40;;;17.60
69435;BMP180;56625;54.322;18.582;2023-08-06T05:00:59;99593.80;;;17.60
69435;BMP180;56625;54.322;18.582;2023-08-06T05:03:26;99599.80;;;17.60
69435;BMP180;56625;54.322;18.582;2023-08-06T05:05:55;99604.00;;;17.68
69435;BMP180;56625;54.322;18.582;2023-08-06T05:08:23;99600.20;;;17.70
69435;BMP180;56625;54.322;18.582;2023-08-06T05:10:51;99598.60;;;17.70
69435;BMP180;56625;54.322;18.582;2023-08-06T05:13:19;99599.80;;;17.70
69435;BMP180;56625;54.322;18.582;2023-08-06T05:15:47;99605.60;;;17.70
69435;BMP180;56625;54.322;18.582;2023-08-06T05:18:15;99612.20;;;17.70
69435;BMP180;56625;54.322;18.582;2023-08-06T05:20:44;99592.80;;;17.70
69435;BMP180;56625;54.322;18.582;2023-08-06T05:23:12;99583.60;;;17.72
69435;BMP180;56625;54.322;18.582;2023-08-06T05:25:40;99578.20;;;17.76
69435;BMP180;56625;54.322;18.582;2023-08-06T05:28:08;99589.40;;;17.80
69435;BMP180;56625;54.322;18.582;2023-08-06T05:30:41;99595.00;;;17.80
69435;BMP180;56625;54.322;18.582;2023-08-06T05:33:09;99583.60;;;17.80
69435;BMP180;56625;54.322;18.582;2023-08-06T05:35:41;99565.20;;;17.76
69435;BMP180;56625;54.322;18.582;2023-08-06T05:38:10;99543.20;;;17.78
69435;BMP180;56625;54.322;18.582;2023-08-06T05:40:39;99545.40;;;17.80
69435;BMP180;56625;54.322;18.582;2023-08-06T05:43:07;99522.00;;;17.80
69435;BMP180;56625;54.322;18.582;2023-08-06T05:45:35;99532.20;;;17.80
69435;BMP180;56625;54.322;18.582;2023-08-06T05:48:03;99546.20;;;17.80
69435;BMP180;56625;54.322;18.582;2023-08-06T05:50:31;99526.20;;;17.80
69435;BMP180;56625;54.322;18.582;2023-08-06T05:52:59;99479.80;;;17.80
69435;BMP180;56625;54.322;18.582;2023-08-06T05:55:29;99440.40;;;17.80
69435;BMP180;56625;54.322;18.582;2023-08-06T05:57:57;99418.60;;;17.80
69435;BMP180;56625;54.322;18.582;2023-08-06T06:00:25;99409.60;;;17.80
69435;BMP180;56625;54.322;18.582;2023-08-06T06:02:53;99439.20;;;17.80
69435;BMP180;56625;54.322;18.582;2023-08-06T06:05:21;99468.40;;;17.80
69435;BMP180;56625;54.322;18.582;2023-08-06T06:07:49;99481.40;;;17.80
69435;BMP180;56625;54.322;18.582;2023-08-06T06:10:17;99469.60;;;17.80
69435;BMP180;56625;54.322;18.582;2023-08-06T06:12:45;99471.40;;;17.80
69435;BMP180;56625;54.322;18.582;2023-08-06T06:15:13;99484.00;;;17.80
69435;BMP180;56625;54.322;18.582;2023-08-06T06:17:41;99485.00;;;17.80
69435;BMP180;56625;54.322;18.582;2023-08-06T06:20:10;99487.40;;;17.80
69435;BMP180;56625;54.322;18.582;2023-08-06T06:22:38;99483.80;;;17.82
69435;BMP180;56625;54.322;18.582;2023-08-06T06:25:06;99476.40;;;17.90
69435;BMP180;56625;54.322;18.582;2023-08-06T06:27:34;99483.60;;;17.90
69435;BMP180;56625;54.322;18.582;2023-08-06T06:30:03;99480.40;;;17.90
69435;BMP180;56625;54.322;18.582;2023-08-06T06:32:32;99489.60;;;17.90
69435;BMP180;56625;54.322;18.582;2023-08-06T06:35:00;99512.00;;;17.90
69435;BMP180;56625;54.322;18.582;2023-08-06T06:37:27;99513.20;;;18.00
69435;BMP180;56625;54.322;18.582;2023-08-06T06:39:55;99493.80;;;18.00
69435;BMP180;56625;54.322;18.582;2023-08-06T06:42:23;99485.80;;;18.00
69435;BMP180;56625;54.322;18.582;2023-08-06T06:44:51;99471.20;;;18.10
69435;BMP180;56625;54.322;18.582;2023-08-06T06:47:19;99450.60;;;18.12
69435;BMP180;56625;54.322;18.582;2023-08-06T06:49:47;99448.00;;;18.20
69435;BMP180;56625;54.322;18.582;2023-08-06T06:52:15;99441.80;;;18.20
69435;BMP180;56625;54.322;18.582;2023-08-06T06:54:43;99424.80;;;18.30
69435;BMP180;56625;54.322;18.582;2023-08-06T06:57:11;99418.00;;;18.30
69435;BMP180;56625;54.322;18.582;2023-08-06T06:59:39;99419.20;;;18.40
69435;BMP180;56625;54.322;18.582;2023-08-06T07:02:07;99409.20;;;18.50
69435;BMP180;56625;54.322;18.582;2023-08-06T07:04:35;99400.40;;;18.60
69435;BMP180;56625;54.322;18.582;2023-08-06T07:07:03;99400.20;;;18.60
69435;BMP180;56625;54.322;18.582;2023-08-06T07:09:31;99398.60;;;18.70
69435;BMP180;56625;54.322;18.582;2023-08-06T07:11:59;99387.80;;;18.70
69435;BMP180;56625;54.322;18.582;2023-08-06T07:14:29;99387.80;;;18.70
69435;BMP180;56625;54.322;18.582;2023-08-06T07:16:58;99383.40;;;18.70
69435;BMP180;56625;54.322;18.582;2023-08-06T07:19:26;99374.40;;;18.80
69435;BMP180;56625;54.322;18.582;2023-08-06T07:21:54;99374.20;;;18.80
69435;BMP180;56625;54.322;18.582;2023-08-06T07:24:24;99371.60;;;18.80
69435;BMP180;56625;54.322;18.582;2023-08-06T07:26:51;99369.00;;;18.84
69435;BMP180;56625;54.322;18.582;2023-08-06T07:29:20;99374.60;;;18.86
69435;BMP180;56625;54.322;18.582;2023-08-06T07:31:50;99378.60;;;18.90
69435;BMP180;56625;54.322;18.582;2023-08-06T07:34:19;99366.60;;;18.90
69435;BMP180;56625;54.322;18.582;2023-08-06T07:36:47;99357.20;;;18.90
69435;BMP180;56625;54.322;18.582;2023-08-06T07:39:15;99355.80;;;18.90
69435;BMP180;56625;54.322;18.582;2023-08-06T07:41:44;99342.40;;;18.90
69435;BMP180;56625;54.322;18.582;2023-08-06T07:44:15;99344.20;;;18.90
69435;BMP180;56625;54.322;18.582;2023-08-06T07:46:42;99326.60;;;18.90
69435;BMP180;56625;54.322;18.582;2023-08-06T07:49:10;99320.00;;;18.90
69435;BMP180;56625;54.322;18.582;2023-08-06T07:51:39;99316.80;;;18.90
69435;BMP180;56625;54.322;18.582;2023-08-06T07:54:07;99304.80;;;18.90
69435;BMP180;56625;54.322;18.582;2023-08-06T07:56:35;99298.80;;;18.90
69435;BMP180;56625;54.322;18.582;2023-08-06T07:59:06;99295.20;;;18.90
69435;BMP180;56625;54.322;18.582;2023-08-06T08:01:35;99285.20;;;18.90
69435;BMP180;56625;54.322;18.582;2023-08-06T08:04:03;99278.80;;;18.90
69435;BMP180;56625;54.322;18.582;2023-08-06T08:06:33;99273.20;;;18.90
69435;BMP180;56625;54.322;18.582;2023-08-06T08:09:01;99270.40;;;18.90
69435;BMP180;56625;54.322;18.582;2023-08-06T08:11:29;99270.80;;;19.00
69435;BMP180;56625;54.322;18.582;2023-08-06T08:13:59;99256.60;;;19.00
69435;BMP180;56625;54.322;18.582;2023-08-06T08:16:30;99255.20;;;19.10
69435;BMP180;56625;54.322;18.582;2023-08-06T08:19:01;99254.40;;;19.10
69435;BMP180;56625;54.322;18.582;2023-08-06T08:21:34;99248.40;;;19.10
69435;BMP180;56625;54.322;18.582;2023-08-06T08:24:04;99248.60;;;19.20
69435;BMP180;56625;54.322;18.582;2023-08-06T08:26:32;99239.20;;;19.20
69435;BMP180;56625;54.322;18.582;2023-08-06T08:29:03;99236.00;;;19.20
69435;BMP180;56625;54.322;18.582;2023-08-06T08:31:34;99229.00;;;19.18
69435;BMP180;56625;54.322;18.582;2023-08-06T08:34:07;99229.00;;;19.12
69435;BMP180;56625;54.322;18.582;2023-08-06T08:36:35;99226.80;;;19.14
69435;BMP180;56625;54.322;18.582;2023-08-06T08:39:03;99224.40;;;19.20
69435;BMP180;56625;54.322;18.582;2023-08-06T08:41:35;99217.20;;;19.20
69435;BMP180;56625;54.322;18.582;2023-08-06T08:44:08;99219.60;;;19.28
69435;BMP180;56625;54.322;18.582;2023-08-06T08:46:40;99216.20;;;19.30
69435;BMP180;56625;54.322;18.582;2023-08-06T08:49:10;99212.20;;;19.30
69435;BMP180;56625;54.322;18.582;2023-08-06T08:51:40;99209.00;;;19.30
69435;BMP180;56625;54.322;18.582;2023-08-06T08:54:09;99201.80;;;19.30
69435;BMP180;56625;54.322;18.582;2023-08-06T08:56:39;99190.60;;;19.30
69435;BMP180;56625;54.322;18.582;2023-08-06T08:59:10;99186.00;;;19.30
69435;BMP180;56625;54.322;18.582;2023-08-06T09:01:42;99181.40;;;19.30
69435;BMP180;56625;54.322;18.582;2023-08-06T09:05:05;99178.00;;;19.30
69435;BMP180;56625;54.322;18.582;2023-08-06T09:08:18;99160.40;;;19.38
69435;BMP180;56625;54.322;18.582;2023-08-06T09:10:49;99153.00;;;19.36
69435;BMP180;56625;54.322;18.582;2023-08-06T09:13:23;99141.60;;;19.38
69435;BMP180;56625;54.322;18.582;2023-08-06T09:16:02;99136.20;;;19.40
69435;BMP180;56625;54.322;18.582;2023-08-06T09:23:27;99116.80;;;19.40
69435;BMP180;56625;54.322;18.582;2023-08-06T09:30:47;99125.80;;;19.50
69435;BMP180;56625;54.322;18.582;2023-08-06T09:36:52;99127.80;;;19.70
69435;BMP180;56625;54.322;18.582;2023-08-06T09:40:03;99123.00;;;19.80
69435;BMP180;56625;54.322;18.582;2023-08-06T09:42:44;99124.40;;;19.80
69435;BMP180;56625;54.322;18.582;2023-08-06T09:45:35;99124.60;;;19.82
69435;BMP180;56625;54.322;18.582;2023-08-06T09:48:09;99130.40;;;19.90
69435;BMP180;56625;54.322;18.582;2023-08-06T09:50:40;99120.80;;;19.90
69435;BMP180;56625;54.322;18.582;2023-08-06T09:53:16;99116.60;;;19.90
69435;BMP180;56625;54.322;18.582;2023-08-06T09:55:56;99115.60;;;19.90
69435;BMP180;56625;54.322;18.582;2023-08-06T09:58:32;99123.00;;;19.92
69435;BMP180;56625;54.322;18.582;2023-08-06T10:01:04;99110.60;;;19.90
69435;BMP180;56625;54.322;18.582;2023-08-06T10:03:33;99109.80;;;19.94
69435;BMP180;56625;54.322;18.582;2023-08-06T10:06:03;99106.80;;;20.00
69435;BMP180;56625;54.322;18.582;2023-08-06T10:08:34;99106.60;;;20.00
69435;BMP180;56625;54.322;18.582;2023-08-06T10:11:03;99100.20;;;20.00
69435;BMP180;56625;54.322;18.582;2023-08-06T10:13:34;99104.80;;;20.10
69435;BMP180;56625;54.322;18.582;2023-08-06T10:16:04;99101.00;;;20.10
69435;BMP180;56625;54.322;18.582;2023-08-06T10:18:37;99100.00;;;20.10
69435;BMP180;56625;54.322;18.582;2023-08-06T10:21:10;99093.80;;;20.10
69435;BMP180;56625;54.322;18.582;2023-08-06T10:23:40;99091.60;;;20.10
69435;BMP180;56625;54.322;18.582;2023-08-06T10:26:08;99085.00;;;20.10
69435;BMP180;56625;54.322;18.582;2023-08-06T10:28:38;99073.80;;;20.10
69435;BMP180;56625;54.322;18.582;2023-08-06T10:31:06;99067.80;;;20.10
69435;BMP180;56625;54.322;18.582;2023-08-06T10:33:43;99062.20;;;20.10
69435;BMP180;56625;54.322;18.582;2023-08-06T10:36:13;99055.60;;;20.10
69435;BMP180;56625;54.322;18.582;2023-08-06T10:38:48;99045.80;;;20.10
69435;BMP180;56625;54.322;18.582;2023-08-06T10:41:23;99043.00;;;20.16
69435;BMP180;56625;54.322;18.582;2023-08-06T10:44:09;99040.60;;;20.20
69435;BMP180;56625;54.322;18.582;2023-08-06T10:46:38;99035.40;;;20.22
69435;BMP180;56625;54.322;18.582;2023-08-06T10:49:06;99020.40;;;20.30
69435;BMP180;56625;54.322;18.582;2023-08-06T10:51:36;99014.00;;;20.38
69435;BMP180;56625;54.322;18.582;2023-08-06T10:54:04;99001.40;;;20.50
69435;BMP180;56625;54.322;18.582;2023-08-06T10:56:40;99002.60;;;20.80
69435;BMP180;56625;54.322;18.582;2023-08-06T10:59:09;98999.60;;;21.10
69435;BMP180;56625;54.322;18.582;2023-08-06T11:01:38;98988.00;;;21.38
69435;BMP180;56625;54.322;18.582;2023-08-06T11:04:07;98985.20;;;21.60
69435;BMP180;56625;54.322;18.582;2023-08-06T11:06:35;98987.00;;;21.90
69435;BMP180;56625;54.322;18.582;2023-08-06T11:09:03;98978.00;;;22.06
69435;BMP180;56625;54.322;18.582;2023-08-06T11:11:31;98975.20;;;22.20
69435;BMP180;56625;54.322;18.582;2023-08-06T11:13:59;98976.40;;;22.32
69435;BMP180;56625;54.322;18.582;2023-08-06T11:16:27;98973.40;;;22.40
69435;BMP180;56625;54.322;18.582;2023-08-06T11:18:55;98968.00;;;22.40
69435;BMP180;56625;54.322;18.582;2023-08-06T11:21:25;98967.60;;;22.40
69435;BMP180;56625;54.322;18.582;2023-08-06T11:23:54;98965.00;;;22.40
69435;BMP180;56625;54.322;18.582;2023-08-06T11:26:22;98961.00;;;22.50
69435;BMP180;56625;54.322;18.582;2023-08-06T11:28:55;98953.60;;;22.60
69435;BMP180;56625;54.322;18.582;2023-08-06T11:31:23;98953.40;;;22.78
69435;BMP180;56625;54.322;18.582;2023-08-06T11:33:54;98953.60;;;22.80
69435;BMP180;56625;54.322;18.582;2023-08-06T11:36:33;98946.40;;;22.72
69435;BMP180;56625;54.322;18.582;2023-08-06T11:39:03;98953.00;;;22.70
69435;BMP180;56625;54.322;18.582;2023-08-06T11:41:33;98949.60;;;22.70
69435;BMP180;56625;54.322;18.582;2023-08-06T11:44:02;98943.00;;;22.70
69435;BMP180;56625;54.322;18.582;2023-08-06T11:46:50;98944.80;;;22.70
69435;BMP180;56625;54.322;18.582;2023-08-06T11:49:20;98943.80;;;22.60
69435;BMP180;56625;54.322;18.582;2023-08-06T11:51:49;98943.40;;;22.60
69435;BMP180;56625;54.322;18.582;2023-08-06T11:54:31;98941.60;;;22.58
69435;BMP180;56625;54.322;18.582;2023-08-06T11:57:04;98937.60;;;22.60
69435;BMP180;56625;54.322;18.582;2023-08-06T11:59:33;98935.20;;;22.72
69435;BMP180;56625;54.322;18.582;2023-08-06T12:02:04;98930.60;;;22.90
69435;BMP180;56625;54.322;18.582;2023-08-06T12:05:01;98921.80;;;23.10
69435;BMP180;56625;54.322;18.582;2023-08-06T12:07:32;98921.80;;;23.20
69435;BMP180;56625;54.322;18.582;2023-08-06T12:10:00;98916.20;;;23.38
69435;BMP180;56625;54.322;18.582;2023-08-06T12:12:28;98911.40;;;23.48
69435;BMP180;56625;54.322;18.582;2023-08-06T12:14:57;98905.80;;;23.50
69435;BMP180;56625;54.322;18.582;2023-08-06T12:17:25;98904.60;;;23.60
69435;BMP180;56625;54.322;18.582;2023-08-06T12:19:53;98903.00;;;23.68
69435;BMP180;56625;54.322;18.582;2023-08-06T12:22:21;98898.80;;;23.80
69435;BMP180;56625;54.322;18.582;2023-08-06T12:24:51;98883.80;;;24.00
69435;BMP180;56625;54.322;18.582;2023-08-06T12:27:19;98881.60;;;24.14
69435;BMP180;56625;54.322;18.582;2023-08-06T12:29:49;98875.20;;;24.30
69435;BMP180;56625;54.322;18.582;2023-08-06T12:32:17;98869.40;;;24.50
69435;BMP180;56625;54.322;18.582;2023-08-06T12:34:47;98867.20;;;24.80
69435;BMP180;56625;54.322;18.582;2023-08-06T12:37:20;98859.20;;;25.00
69435;BMP180;56625;54.322;18.582;2023-08-06T12:39:51;98854.60;;;25.00
69435;BMP180;56625;54.322;18.582;2023-08-06T12:42:20;98855.00;;;24.80
69435;BMP180;56625;54.322;18.582;2023-08-06T12:44:48;98852.20;;;24.60
69435;BMP180;56625;54.322;18.582;2023-08-06T12:47:18;98844.60;;;24.60
69435;BMP180;56625;54.322;18.582;2023-08-06T12:49:46;98840.80;;;24.60
69435;BMP180;56625;54.322;18.582;2023-08-06T12:52:14;98835.60;;;24.70
69435;BMP180;56625;54.322;18.582;2023-08-06T12:54:43;98832.00;;;24.80
69435;BMP180;56625;54.322;18.582;2023-08-06T12:57:11;98833.80;;;24.80
69435;BMP180;56625;54.322;18.582;2023-08-06T12:59:39;98833.20;;;24.80
69435;BMP180;56625;54.322;18.582;2023-08-06T13:02:07;98828.00;;;24.78
69435;BMP180;56625;54.322;18.582;2023-08-06T13:04:35;98826.40;;;24.70
69435;BMP180;56625;54.322;18.582;2023-08-06T13:07:03;98821.60;;;24.70
69435;BMP180;56625;54.322;18.582;2023-08-06T13:09:33;98821.20;;;24.70
69435;BMP180;56625;54.322;18.582;2023-08-06T13:12:02;98823.00;;;24.60
69435;BMP180;56625;54.322;18.582;2023-08-06T13:14:33;98822.20;;;24.60
69435;BMP180;56625;54.322;18.582;2023-08-06T13:17:01;98820.60;;;24.50
69435;BMP180;56625;54.322;18.582;2023-08-06T13:19:29;98817.20;;;24.44
69435;BMP180;56625;54.322;18.582;2023-08-06T13:24:29;98805.20;;;24.50
69435;BMP180;56625;54.322;18.582;2023-08-06T13:26:58;98793.40;;;24.58
69435;BMP180;56625;54.322;18.582;2023-08-06T13:29:27;98793.00;;;24.70
69435;BMP180;56625;54.322;18.582;2023-08-06T13:31:55;98789.40;;;24.86
69435;BMP180;56625;54.322;18.582;2023-08-06T13:34:23;98792.20;;;24.90
69435;BMP180;56625;54.322;18.582;2023-08-06T13:36:51;98781.80;;;24.90
69435;BMP180;56625;54.322;18.582;2023-08-06T13:39:20;98776.40;;;25.10
69435;BMP180;56625;54.322;18.582;2023-08-06T13:41:48;98769.00;;;25.20
69435;BMP180;56625;54.322;18.582;2023-08-06T13:44:16;98762.80;;;25.30
69435;BMP180;56625;54.322;18.582;2023-08-06T13:46:44;98760.20;;;25.40
69435;BMP180;56625;54.322;18.582;2023-08-06T13:49:12;98744.20;;;25.40
69435;BMP180;56625;54.322;18.582;2023-08-06T13:51:40;98746.40;;;25.50
69435;BMP180;56625;54.322;18.582;2023-08-06T13:54:08;98748.80;;;25.50
69435;BMP180;56625;54.322;18.582;2023-08-06T13:56:35;98761.00;;;25.60
69435;BMP180;56625;54.322;18.582;2023-08-06T13:59:05;98764.00;;;25.70
69435;BMP180;56625;54.322;18.582;2023-08-06T14:01:34;98748.20;;;25.90
69435;BMP180;56625;54.322;18.582;2023-08-06T14:04:18;98752.60;;;25.94
69435;BMP180;56625;54.322;18.582;2023-08-06T14:06:46;98756.80;;;26.00
69435;BMP180;56625;54.322;18.582;2023-08-06T14:09:14;98748.80;;;26.10
69435;BMP180;56625;54.322;18.582;2023-08-06T14:11:46;98728.60;;;26.00
69435;BMP180;56625;54.322;18.582;2023-08-06T14:14:14;98728.80;;;25.80
69435;BMP180;56625;54.322;18.582;2023-08-06T14:16:42;98720.60;;;25.60
69435;BMP180;56625;54.322;18.582;2023-08-06T14:19:10;98731.60;;;25.40
69435;BMP180;56625;54.322;18.582;2023-08-06T14:21:38;98733.40;;;25.20
69435;BMP180;56625;54.322;18.582;2023-08-06T14:24:07;98732.60;;;25.10
69435;BMP180;56625;54.322;18.582;2023-08-06T14:26:34;98728.40;;;25.00
69435;BMP180;56625;54.322;18.582;2023-08-06T14:29:03;98728.00;;;24.92
69435;BMP180;56625;54.322;18.582;2023-08-06T14:31:31;98726.40;;;24.80
69435;BMP180;56625;54.322;18.582;2023-08-06T14:33:59;98716.20;;;24.60